Hamoir, Belgium
Current Conditions -  °F | °C
As of 4:50 AM on Wednesday 26 Nov 2014 (Local Time) from EBLG Reporting Station
Clear Clear  
Wind Chill: 40°   Ceiling: Unl
Heat Index: 43°   Visibility: 6mi
Dew Point: 39°   Wind: 5mph
Humidity: 87%   Direction: NA
Pressure: 29.97"   Gusts: 18mph
Location:  50.43°N, 5.53°E
Report Text: EBLG 260350Z VRB04G16KT CAVOK 06/04 Q1015 NOSIG
Loading
Personal Weather Stations






























Interactive Weather Map New forecast layout! Learn more

10-Day Weather Forecast

Advertisements
Track Severe Weather on mobile